Time;durP1;ratioP1;P1;durP2;ratioP2;P2;SDS_P1;SDS_P2;PMS_P1;PMS_P2;Temp;Humidity;BMP_temperature;BMP_pressure;BME280_temperature;BME280_humidity;BME280_pressure;Samples;Min_cycle;Max_cycle;Signal;HPM_P1;HPM_P2
2023/06/29 00:02:24;;;;;;;7.53;5.23;;;;;;;17.21;99.27;95005.59;5072317;28;20499;-76
2023/06/29 00:04:54;;;;;;;6.60;5.57;;;;;;;17.18;98.70;94995.31;5072472;28;20445;-76
2023/06/29 00:07:24;;;;;;;5.90;5.20;;;;;;;17.13;98.66;94988.88;5072624;28;20506;-76
2023/06/29 00:09:54;;;;;;;5.70;5.07;;;;;;;17.07;98.32;94984.25;5072282;28;20582;-76
2023/06/29 00:12:21;;;;;;;5.87;5.37;;;;;;;17.06;97.61;94996.69;5072630;28;20442;-76
2023/06/29 00:14:48;;;;;;;5.57;5.00;;;;;;;17.05;98.07;94997.63;5072279;28;20911;-76
2023/06/29 00:17:16;;;;;;;9.23;4.50;;;;;;;17.06;97.65;94996.69;5072458;28;20931;-76
2023/06/29 00:19:47;;;;;;;6.20;5.30;;;;;;;17.06;97.00;94991.38;5071928;28;20946;-76
2023/06/29 00:22:14;;;;;;;6.20;5.10;;;;;;;17.08;96.87;94991.19;5072303;28;20486;-76
2023/06/29 00:24:43;;;;;;;8.67;5.57;;;;;;;17.01;96.97;94986.53;5072262;28;20935;-76
2023/06/29 00:27:12;;;;;;;5.80;5.30;;;;;;;16.95;96.82;94989.03;5072059;28;21030;-76
2023/06/29 00:29:42;;;;;;;5.57;4.97;;;;;;;16.91;97.16;94983.25;5072121;28;20549;-76
2023/06/29 00:32:09;;;;;;;5.03;4.53;;;;;;;16.90;98.04;94986.06;5072111;28;20803;-76
2023/06/29 00:34:36;;;;;;;6.10;5.60;;;;;;;16.84;98.20;94984.91;5076070;28;20451;-76
2023/06/29 00:37:06;;;;;;;5.80;4.77;;;;;;;16.79;98.26;94979.28;5075896;28;20445;-76
2023/06/29 00:39:33;;;;;;;5.30;4.77;;;;;;;16.73;98.10;94988.69;5075937;28;20443;-76
2023/06/29 00:42:00;;;;;;;8.63;5.30;;;;;;;16.72;98.43;94988.88;5076054;28;20452;-76
2023/06/29 00:44:28;;;;;;;6.40;5.30;;;;;;;16.77;100.00;94988.38;5076257;28;20450;-76
2023/06/29 00:46:55;;;;;;;7.63;5.10;;;;;;;16.77;98.73;94985.72;5075873;28;20463;-77
2023/06/29 00:49:23;;;;;;;5.60;5.10;;;;;;;16.80;97.65;94988.06;5076032;28;20472;-76
2023/06/29 00:51:51;;;;;;;7.13;4.77;;;;;;;16.82;97.65;94980.78;5075574;28;20467;-76
2023/06/29 00:54:18;;;;;;;5.90;3.70;;;;;;;16.81;96.13;94989.72;5075463;28;20460;-76
2023/06/29 00:56:46;;;;;;;4.53;4.17;;;;;;;16.89;96.39;94998.50;5075508;28;20454;-76
2023/06/29 00:59:13;;;;;;;5.10;4.70;;;;;;;16.93;96.29;94996.34;5075826;28;20458;-76
2023/06/29 01:01:42;;;;;;;12.80;5.07;;;;;;;17.01;95.65;94993.66;5075516;28;20801;-76
2023/06/29 01:04:10;;;;;;;7.22;5.20;;;;;;;17.13;96.34;94984.41;5074404;28;20442;-76
2023/06/29 01:06:44;;;;;;;7.03;4.37;;;;;;;17.19;95.79;94996.97;5075414;28;20214;-76
2023/06/29 01:09:12;;;;;;;7.27;5.60;;;;;;;17.19;95.83;94996.97;5075383;28;20602;-76
2023/06/29 01:11:40;;;;;;;5.93;4.97;;;;;;;17.20;97.08;95001.28;5040016;28;20441;-76
2023/06/29 01:14:11;;;;;;;5.47;4.40;;;;;;;17.27;97.26;95004.91;5075018;28;20455;-76
2023/06/29 01:16:39;;;;;;;6.27;5.67;;;;;;;17.31;97.75;95002.75;5024745;28;20460;-76
2023/06/29 01:19:10;;;;;;;7.50;5.07;;;;;;;17.33;97.47;94998.09;5074955;28;20444;-76
2023/06/29 01:21:42;;;;;;;6.10;4.63;;;;;;;17.40;97.34;94990.31;5075280;28;20482;-76
2023/06/29 01:24:09;;;;;;;8.03;5.40;;;;;;;17.45;97.24;94990.63;5075349;28;20441;-77
2023/06/29 01:26:38;;;;;;;6.40;5.67;;;;;;;17.48;97.36;94987.66;5039847;28;20444;-76
2023/06/29 01:29:08;;;;;;;5.10;4.60;;;;;;;17.50;97.09;94983.00;5074894;28;20444;-76
2023/06/29 01:31:37;;;;;;;5.97;5.07;;;;;;;17.51;96.78;94984.66;5074914;28;20491;-77
2023/06/29 01:34:05;;;;;;;6.20;5.67;;;;;;;17.53;96.72;94982.66;5074763;28;20450;-76
2023/06/29 01:36:41;;;;;;;6.40;5.80;;;;;;;17.51;97.53;94987.31;5074827;28;20906;-76
2023/06/29 01:39:17;;;;;;;7.03;5.53;;;;;;;17.52;97.13;94988.94;5074976;28;20451;-76
2023/06/29 01:41:47;;;;;;;6.00;4.97;;;;;;;17.51;97.45;94992.59;5074832;28;20451;-76
2023/06/29 01:44:24;;;;;;;6.73;5.57;;;;;;;17.44;96.66;94992.47;5073314;28;20453;-76
2023/06/29 01:46:53;;;;;;;6.27;4.87;;;;;;;17.41;96.46;94986.66;5075059;28;20518;-76
2023/06/29 01:49:20;;;;;;;6.80;6.10;;;;;;;17.34;96.10;94989.16;5074374;28;20452;-77
2023/06/29 01:51:47;;;;;;;6.83;5.60;;;;;;;17.36;96.30;94986.34;5074512;28;20482;-76
2023/06/29 01:54:14;;;;;;;8.17;5.40;;;;;;;17.35;96.80;94990.84;5022832;28;20471;-76
2023/06/29 01:56:40;;;;;;;6.30;5.70;;;;;;;17.38;96.15;94989.66;5039458;28;20469;-76
2023/06/29 01:59:10;;;;;;;8.47;5.37;;;;;;;17.35;96.15;94990.84;5074426;28;20455;-76
2023/06/29 02:01:37;;;;;;;5.60;5.10;;;;;;;17.21;96.01;94984.38;5074528;28;20544;-76
2023/06/29 02:04:05;;;;;;;7.63;6.00;;;;;;;17.20;95.86;94990.69;5022646;28;20789;-76
2023/06/29 02:06:32;;;;;;;7.20;6.10;;;;;;;17.20;96.48;94988.03;5074409;28;20532;-77
2023/06/29 02:08:58;;;;;;;6.83;6.13;;;;;;;17.19;96.21;94991.69;5075918;28;20448;-76
2023/06/29 02:11:25;;;;;;;9.20;6.60;;;;;;;17.16;96.56;94991.19;5044059;28;20473;-76
2023/06/29 02:13:52;;;;;;;7.50;5.37;;;;;;;17.17;97.20;94998.16;5077250;28;20438;-76
2023/06/29 02:16:20;;;;;;;6.73;5.77;;;;;;;17.17;96.21;95004.28;5074034;28;20936;-76
2023/06/29 02:18:47;;;;;;;7.87;6.03;;;;;;;17.16;96.41;95001.78;5074471;28;20449;-76
2023/06/29 02:21:14;;;;;;;6.93;5.60;;;;;;;17.14;96.54;94998.47;5074126;28;20472;-77
2023/06/29 02:23:41;;;;;;;6.17;5.60;;;;;;;17.02;96.09;94990.03;5073934;28;20909;-77
2023/06/29 02:26:10;;;;;;;9.20;5.97;;;;;;;17.01;96.35;94988.38;5074085;28;20464;-76
2023/06/29 02:28:37;;;;;;;8.37;6.53;;;;;;;16.99;96.28;94979.75;5039754;28;20435;-76
2023/06/29 02:31:04;;;;;;;6.33;5.63;;;;;;;16.98;96.04;94984.22;5073703;28;20489;-76
2023/06/29 02:33:32;;;;;;;6.10;5.53;;;;;;;16.99;96.81;94983.25;5073907;28;20449;-76
2023/06/29 02:35:58;;;;;;;8.43;7.30;;;;;;;16.99;95.94;94987.72;5073706;28;20452;-76
2023/06/29 02:38:25;;;;;;;8.83;7.53;;;;;;;17.00;96.38;94992.84;5073621;28;20453;-76
2023/06/29 02:41:06;;;;;;;6.87;6.23;;;;;;;16.96;96.34;94985.41;5073645;28;20453;-76
2023/06/29 02:43:34;;;;;;;8.07;7.27;;;;;;;16.90;95.78;94986.06;5007200;28;20529;-76
2023/06/29 02:46:01;;;;;;;7.53;6.60;;;;;;;16.78;95.63;94993.53;5073324;28;20480;-76
2023/06/29 02:48:34;;;;;;;9.17;5.63;;;;;;;16.64;96.59;94986.19;5073279;28;20460;-76
2023/06/29 02:51:02;;;;;;;8.20;7.40;;;;;;;16.61;98.02;94987.34;5073665;28;20589;-76
2023/06/29 02:53:29;;;;;;;7.37;6.63;;;;;;;16.65;98.21;94998.44;5073439;28;20443;-76
2023/06/29 02:55:56;;;;;;;7.93;6.57;;;;;;;16.62;97.78;94986.34;5073114;28;20449;-77
2023/06/29 02:58:24;;;;;;;9.03;6.60;;;;;;;16.65;97.73;94993.16;5073298;28;20440;-76
2023/06/29 03:00:51;;;;;;;7.00;6.10;;;;;;;16.63;97.56;94993.31;5073019;28;20970;-76
2023/06/29 03:03:18;;;;;;;8.07;6.27;;;;;;;16.64;96.77;94997.63;5074326;28;20497;-79
2023/06/29 03:05:45;;;;;;;13.20;6.80;;;;;;;16.59;96.63;95007.88;5074123;28;20448;-80
2023/06/29 03:08:13;;;;;;;9.10;7.50;;;;;;;16.60;96.64;95003.41;5074170;28;20428;-79
2023/06/29 03:10:42;;;;;;;21.70;8.00;;;;;;;16.56;98.57;95000.28;5039378;28;20480;-80
2023/06/29 03:13:09;;;;;;;6.90;6.30;;;;;;;16.61;99.43;95007.72;5073731;28;20429;-79
2023/06/29 03:15:36;;;;;;;8.03;6.97;;;;;;;16.67;99.04;95015.88;5074655;28;20433;-79
2023/06/29 03:18:02;;;;;;;9.80;7.40;;;;;;;16.68;100.00;95008.75;5074329;28;20444;-79
2023/06/29 03:20:32;;;;;;;7.30;6.60;;;;;;;16.77;99.00;95018.38;5073460;28;20480;-78
2023/06/29 03:22:59;;;;;;;7.10;6.40;;;;;;;16.85;98.26;95010.44;5073430;28;20538;-77
2023/06/29 03:25:27;;;;;;;6.70;6.07;;;;;;;16.92;97.74;95010.59;5073254;28;20449;-77
2023/06/29 03:27:56;;;;;;;8.07;6.40;;;;;;;17.06;97.04;95023.19;5078129;28;20853;-77
2023/06/29 03:30:26;;;;;;;7.60;6.70;;;;;;;17.26;96.98;95019.19;5075511;28;20482;-77
2023/06/29 03:33:22;;;;;;;8.03;6.90;;;;;;;17.33;95.58;95019.31;5073394;28;20789;-78
2023/06/29 03:35:49;;;;;;;7.33;6.30;;;;;;;17.41;95.22;95021.16;4991573;28;20450;-77
2023/06/29 03:41:41;;;;;;;10.30;8.17;;;;;;;17.62;93.90;95018.78;4952840;29;20483;-78
2023/06/29 03:44:08;;;;;;;9.23;7.20;;;;;;;17.65;92.38;95019.28;4952660;29;20561;-77
2023/06/29 03:46:36;;;;;;;8.07;7.23;;;;;;;17.70;92.54;95021.47;4953135;29;20437;-77
2023/06/29 03:49:05;;;;;;;7.40;6.73;;;;;;;17.71;93.00;95022.28;4952942;29;20939;-77
2023/06/29 03:51:31;;;;;;;9.40;7.87;;;;;;;17.79;92.74;95032.88;4921312;29;20489;-77
2023/06/29 03:54:00;;;;;;;8.87;7.97;;;;;;;17.87;91.60;95027.53;4952394;29;20454;-77
2023/06/29 03:56:27;;;;;;;11.87;8.67;;;;;;;18.00;90.88;95030.47;4920688;29;20449;-77
2023/06/29 03:58:55;;;;;;;10.30;8.93;;;;;;;18.07;90.25;95030.63;4952356;29;20463;-77
2023/06/29 04:01:21;;;;;;;10.80;9.57;;;;;;;18.10;89.55;95028.44;4952185;29;20467;-77
2023/06/29 04:03:48;;;;;;;11.23;9.17;;;;;;;17.95;88.30;95036.31;4952295;29;20459;-77
2023/06/29 04:06:17;;;;;;;14.23;9.13;;;;;;;17.92;88.23;95030.50;4967278;28;20998;-76
2023/06/29 04:08:44;;;;;;;11.83;9.50;;;;;;;17.89;88.54;95036.97;4993846;28;20447;-77
2023/06/29 04:11:12;;;;;;;11.67;9.00;;;;;;;17.89;87.24;95038.78;4974394;28;20488;-77
2023/06/29 04:13:38;;;;;;;14.40;10.07;;;;;;;18.02;88.45;95035.63;5014429;28;21023;-77
2023/06/29 04:16:08;;;;;;;8.77;7.83;;;;;;;18.70;96.83;95037.63;4965596;28;20446;-78
2023/06/29 04:18:35;;;;;;;9.30;7.30;;;;;;;19.43;90.42;95035.22;5053521;28;20913;-77
2023/06/29 04:21:07;;;;;;;8.40;7.60;;;;;;;20.22;84.67;95037.38;5076364;28;20567;-78
2023/06/29 04:23:36;;;;;;;9.60;8.70;;;;;;;20.67;75.90;95052.31;5076306;28;20869;-78
2023/06/29 04:32:23;;;;;;;10.23;7.77;;;;;;;21.15;71.76;95053.44;4950969;29;20487;-77
2023/06/29 04:35:07;;;;;;;11.43;10.33;;;;;;;21.16;72.74;95048.94;4879829;29;20485;-76
2023/06/29 05:04:20;;;;;;;17.93;9.20;;;;;;;21.44;71.85;95060.50;4769729;30;20263;-76
2023/06/29 05:06:54;;;;;;;21.20;9.13;;;;;;;21.65;68.88;95057.78;4787547;30;20557;-78
2023/06/29 05:09:22;;;;;;;10.50;9.40;;;;;;;21.71;67.62;95066.06;4833367;29;20488;-78
2023/06/29 05:18:45;;;;;;;11.87;9.53;;;;;;;21.65;67.66;95073.81;4834693;29;20457;-76
2023/06/29 05:21:56;;;;;;;15.07;9.40;;;;;;;21.34;69.28;95079.50;4772329;29;20491;-76
2023/06/29 05:57:33;;;;;;;16.20;11.57;;;;;;;18.82;83.72;95076.09;4693069;30;20213;-76
2023/06/29 06:00:07;;;;;;;15.10;10.90;;;;;;;18.99;83.06;95074.97;4754910;30;20223;-77
2023/06/29 06:02:44;;;;;;;14.90;11.83;;;;;;;19.30;80.60;95079.41;4751251;30;20494;-77
2023/06/29 06:05:13;;;;;;;12.80;10.57;;;;;;;19.83;81.12;95069.63;4762310;29;20525;-78
2023/06/29 06:07:48;;;;;;;16.10;11.00;;;;;;;20.29;80.72;95071.13;4805753;29;20446;-79
2023/06/29 06:10:16;;;;;;;82.57;57.70;;;;;;;20.85;75.80;95079.41;4820828;29;20465;-78
2023/06/29 06:12:47;;;;;;;14.20;9.67;;;;;;;21.52;78.89;95073.72;4825854;29;20492;-79
2023/06/29 06:15:28;;;;;;;18.00;9.87;;;;;;;21.93;70.17;95087.16;4847376;29;20474;-78
2023/06/29 06:18:00;;;;;;;10.73;8.80;;;;;;;22.40;67.04;95082.16;4845111;29;20458;-78
2023/06/29 06:20:31;;;;;;;11.07;9.50;;;;;;;22.77;67.85;95084.34;4820042;29;20461;-79
2023/06/29 06:23:02;;;;;;;9.63;8.17;;;;;;;22.88;63.64;95095.56;4799908;29;20462;-78
2023/06/29 06:25:31;;;;;;;9.90;7.70;;;;;;;23.10;63.44;95089.00;4823103;29;20964;-80
2023/06/29 06:28:02;;;;;;;10.00;8.90;;;;;;;23.36;62.46;95083.72;4819221;29;20835;-79
2023/06/29 06:30:32;;;;;;;9.97;8.97;;;;;;;23.68;60.33;95078.59;4804115;29;20463;-79
2023/06/29 06:33:04;;;;;;;13.03;8.93;;;;;;;23.83;59.43;95067.69;4809939;29;20943;-79
2023/06/29 06:35:33;;;;;;;8.37;7.47;;;;;;;24.06;62.23;95068.09;4821722;29;20548;-80
2023/06/29 06:38:00;;;;;;;10.27;9.17;;;;;;;23.92;57.40;95072.63;4809988;29;20461;-79
2023/06/29 06:40:27;;;;;;;8.57;7.77;;;;;;;23.52;58.63;95068.28;4818615;29;20687;-80
2023/06/29 06:42:54;;;;;;;9.57;8.57;;;;;;;23.42;62.98;95069.53;4816747;29;20472;-79
2023/06/29 06:45:22;;;;;;;9.73;8.13;;;;;;;23.49;60.60;95066.84;4804192;29;20463;-80
2023/06/29 06:47:48;;;;;;;13.00;7.27;;;;;;;23.18;58.93;95067.44;4804259;29;20463;-80
2023/06/29 06:50:17;;;;;;;10.40;7.43;;;;;;;22.86;59.05;95061.78;4804301;29;20831;-79
2023/06/29 06:52:45;;;;;;;8.10;7.30;;;;;;;22.72;61.82;95059.22;4804417;29;20497;-80
2023/06/29 06:55:14;;;;;;;8.93;7.40;;;;;;;23.03;65.87;95062.22;4804190;29;20474;-79
2023/06/29 06:57:47;;;;;;;7.60;6.90;;;;;;;23.48;61.34;95057.97;4807593;29;20507;-79
2023/06/29 07:00:15;;;;;;;9.20;7.40;;;;;;;23.42;59.41;95064.16;4822314;29;20449;-78
2023/06/29 07:02:43;;;;;;;11.67;7.10;;;;;;;23.27;59.39;95058.16;4773692;29;20459;-79
2023/06/29 07:05:24;;;;;;;8.40;7.60;;;;;;;23.59;64.45;95053.06;4804122;29;20458;-81
2023/06/29 07:07:54;;;;;;;9.50;6.93;;;;;;;23.62;62.97;95050.78;4763136;29;20508;-80
2023/06/29 07:10:28;;;;;;;8.00;7.20;;;;;;;23.98;61.35;95055.69;4804066;29;21124;-79
2023/06/29 07:12:55;;;;;;;8.70;7.70;;;;;;;24.01;58.00;95060.66;4804128;29;20500;-78
2023/06/29 07:15:22;;;;;;;9.73;7.70;;;;;;;24.13;58.24;95054.66;4803625;29;20468;-79
2023/06/29 07:17:52;;;;;;;9.57;8.40;;;;;;;24.24;57.89;95044.09;4806961;29;20447;-78
2023/06/29 07:20:20;;;;;;;9.47;8.30;;;;;;;24.15;58.62;95060.63;4777999;29;20456;-79
2023/06/29 07:22:47;;;;;;;10.10;8.10;;;;;;;24.27;58.42;95048.22;4856010;29;20485;-78
2023/06/29 07:25:18;;;;;;;9.37;7.13;;;;;;;24.28;57.72;95056.06;4858456;29;20469;-78
2023/06/29 07:27:45;;;;;;;7.83;7.03;;;;;;;24.20;57.30;95050.09;4852388;29;20455;-78
2023/06/29 07:30:13;;;;;;;7.90;7.10;;;;;;;24.36;56.86;95055.03;4847531;29;20464;-79
2023/06/29 07:32:40;;;;;;;8.80;7.60;;;;;;;24.72;56.56;95043.75;4858671;29;20681;-79
2023/06/29 07:35:09;;;;;;;9.40;7.70;;;;;;;24.90;55.56;95053.81;4797356;29;20455;-79
2023/06/29 07:37:36;;;;;;;7.93;6.27;;;;;;;24.88;53.19;95045.97;4847453;29;20492;-79
2023/06/29 07:40:09;;;;;;;7.27;6.53;;;;;;;24.82;53.13;95037.91;4840303;29;20923;-79
2023/06/29 07:42:41;;;;;;;6.63;5.90;;;;;;;24.35;53.42;95048.03;4839933;29;20455;-79
2023/06/29 07:45:09;;;;;;;7.93;6.80;;;;;;;24.33;56.67;95045.56;4851075;29;20450;-79
2023/06/29 07:47:37;;;;;;;6.73;5.27;;;;;;;24.06;53.87;95042.09;4802235;29;20490;-79
2023/06/29 07:50:04;;;;;;;7.10;6.40;;;;;;;24.15;54.79;95040.00;4840439;29;20879;-79
2023/06/29 07:52:32;;;;;;;5.57;4.97;;;;;;;24.29;58.77;95041.66;4841762;29;20505;-79
2023/06/29 07:54:59;;;;;;;7.37;6.33;;;;;;;24.31;54.76;95049.50;4811838;29;20939;-80
2023/06/29 07:57:25;;;;;;;8.53;5.83;;;;;;;24.26;54.25;95046.56;4811792;29;20772;-79
2023/06/29 07:59:54;;;;;;;7.60;5.50;;;;;;;24.06;55.11;95039.41;4827955;29;20440;-79
2023/06/29 08:02:21;;;;;;;5.37;4.60;;;;;;;24.14;54.69;95043.72;4858396;29;20466;-79
2023/06/29 08:04:48;;;;;;;8.97;7.50;;;;;;;24.36;54.71;95038.94;4842404;29;20458;-80
2023/06/29 08:07:14;;;;;;;5.47;4.97;;;;;;;24.22;53.04;95029.25;4840165;29;20477;-80
2023/06/29 08:09:43;;;;;;;7.10;6.40;;;;;;;24.21;53.47;95032.97;4824812;29;21297;-80
2023/06/29 08:12:09;;;;;;;5.47;5.00;;;;;;;24.04;53.80;95027.25;4839824;29;20521;-79
2023/06/29 08:14:38;;;;;;;7.03;5.13;;;;;;;24.03;53.87;95037.16;4854084;29;20452;-80
2023/06/29 08:17:05;;;;;;;6.07;5.10;;;;;;;24.25;53.61;95040.38;4858495;29;20862;-80
2023/06/29 08:19:32;;;;;;;4.87;4.37;;;;;;;24.51;53.30;95036.81;4826045;29;20465;-79
2023/06/29 08:21:59;;;;;;;7.97;5.60;;;;;;;24.64;53.53;95031.41;4848715;29;20486;-79
2023/06/29 08:24:25;;;;;;;12.73;5.17;;;;;;;24.30;50.80;95023.72;4849159;29;20455;-79
2023/06/29 08:26:54;;;;;;;5.97;5.37;;;;;;;24.54;53.30;95027.50;4845203;29;20458;-80
2023/06/29 08:29:20;;;;;;;11.33;5.00;;;;;;;24.75;53.23;95024.53;4854908;29;20455;-80
2023/06/29 08:31:47;;;;;;;4.90;4.40;;;;;;;24.81;51.20;95033.59;4850385;29;20497;-80
2023/06/29 08:34:14;;;;;;;5.87;4.90;;;;;;;24.68;52.51;95024.56;4850813;29;20448;-80
2023/06/29 08:36:42;;;;;;;6.13;5.53;;;;;;;24.59;52.02;95033.09;4812087;29;20458;-79
2023/06/29 08:39:09;;;;;;;5.50;5.10;;;;;;;24.57;52.25;95025.22;4848313;29;20531;-80
2023/06/29 08:41:36;;;;;;;5.00;4.60;;;;;;;24.48;51.81;95033.75;4846314;29;20974;-80
2023/06/29 08:44:06;;;;;;;6.00;5.47;;;;;;;24.67;52.66;95022.94;4860555;29;20989;-80
2023/06/29 08:46:33;;;;;;;6.70;5.77;;;;;;;24.61;52.45;95010.38;4932335;29;20447;-80
2023/06/29 08:49:01;;;;;;;6.67;6.03;;;;;;;23.91;53.08;95022.72;4933130;29;20489;-80
2023/06/29 08:51:29;;;;;;;7.10;5.23;;;;;;;23.59;54.27;95026.28;4931210;29;20501;-81
2023/06/29 08:53:56;;;;;;;10.30;5.87;;;;;;;23.70;54.17;95014.91;4920141;29;20835;-80
2023/06/29 08:56:24;;;;;;;6.30;5.23;;;;;;;23.83;54.83;95022.13;4936596;29;20475;-80
2023/06/29 08:58:52;;;;;;;5.47;4.80;;;;;;;24.13;57.74;95011.75;4936402;29;20997;-81
2023/06/29 09:01:20;;;;;;;5.67;4.53;;;;;;;24.48;53.93;95015.78;4936250;29;20473;-80
2023/06/29 09:03:48;;;;;;;8.50;5.10;;;;;;;24.83;53.37;95010.84;4930362;29;20444;-80
2023/06/29 09:06:15;;;;;;;4.77;4.37;;;;;;;25.10;54.95;95005.34;4917152;29;20499;-80
2023/06/29 09:08:42;;;;;;;5.63;4.80;;;;;;;25.31;52.62;95011.19;4937444;28;20470;-79
2023/06/29 09:11:12;;;;;;;4.60;4.20;;;;;;;25.31;49.12;94999.63;4994590;28;20448;-81
2023/06/29 09:13:39;;;;;;;5.50;5.03;;;;;;;25.02;51.17;95003.75;4994406;28;20469;-79
2023/06/29 09:16:05;;;;;;;5.83;4.93;;;;;;;24.22;51.79;94997.88;4994426;28;20869;-79
2023/06/29 09:18:34;;;;;;;5.10;4.63;;;;;;;23.81;53.11;95000.06;4945815;28;20527;-79
2023/06/29 09:21:01;;;;;;;5.30;4.80;;;;;;;23.75;53.18;94997.19;4997964;28;20925;-80
2023/06/29 09:23:29;;;;;;;6.70;5.00;;;;;;;23.90;52.78;94991.59;5013812;28;20946;-80
2023/06/29 09:25:56;;;;;;;12.00;6.87;;;;;;;24.07;52.92;94990.13;5013734;28;20945;-80
2023/06/29 09:28:23;;;;;;;5.80;4.40;;;;;;;24.24;54.59;94986.94;5013445;28;20513;-80
2023/06/29 09:30:50;;;;;;;4.87;4.57;;;;;;;24.43;54.14;94993.31;4980762;28;20546;-80
2023/06/29 09:33:18;;;;;;;5.70;5.20;;;;;;;24.47;53.73;94983.81;5013712;28;20470;-81
2023/06/29 09:35:48;;;;;;;5.63;5.07;;;;;;;24.05;54.01;94986.00;5069753;28;20440;-81
2023/06/29 09:38:16;;;;;;;5.73;5.23;;;;;;;23.93;54.64;94991.16;5075347;28;20447;-80
2023/06/29 09:40:50;;;;;;;5.10;4.60;;;;;;;23.94;55.48;94979.41;5065463;28;20507;-81
2023/06/29 09:43:17;;;;;;;5.13;4.47;;;;;;;24.09;54.16;94988.03;5064354;28;20966;-81
2023/06/29 09:45:44;;;;;;;6.23;4.60;;;;;;;23.96;52.34;94985.38;5074819;28;20491;-81
2023/06/29 09:48:13;;;;;;;6.40;4.77;;;;;;;23.87;54.18;94992.00;5074917;28;20456;-81
2023/06/29 09:50:41;;;;;;;5.37;4.40;;;;;;;23.34;51.83;94981.31;5075030;28;20866;-81
2023/06/29 09:53:09;;;;;;;5.10;4.20;;;;;;;23.20;54.34;94987.72;5075236;28;20488;-80
2023/06/29 09:55:41;;;;;;;5.20;4.63;;;;;;;23.17;54.85;94983.59;5075234;28;20777;-81
2023/06/29 09:58:10;;;;;;;6.70;4.07;;;;;;;23.33;56.74;94987.72;5075547;28;20457;-81
2023/06/29 10:00:37;;;;;;;3.40;3.10;;;;;;;23.27;53.50;94983.19;5074400;28;20902;-81
2023/06/29 10:03:04;;;;;;;5.30;4.20;;;;;;;23.26;52.52;94984.22;5074606;28;20806;-81
2023/06/29 10:05:33;;;;;;;5.60;3.40;;;;;;;23.33;53.05;94979.69;5056574;28;20444;-80
2023/06/29 10:08:01;;;;;;;8.60;2.90;;;;;;;23.46;53.18;94982.38;5054923;28;20474;-81
2023/06/29 10:10:34;;;;;;;3.70;3.40;;;;;;;23.55;54.27;94966.91;5055190;28;20539;-81
2023/06/29 10:13:04;;;;;;;5.20;4.77;;;;;;;23.59;55.40;94967.31;5055323;28;20507;-81
2023/06/29 10:15:34;;;;;;;3.93;3.50;;;;;;;23.34;53.22;94973.28;5054824;28;20447;-80
2023/06/29 10:18:07;;;;;;;7.47;4.13;;;;;;;23.03;53.83;94973.06;5054772;28;20452;-82
2023/06/29 10:20:37;;;;;;;7.63;4.50;;;;;;;23.01;54.18;94962.56;5056746;28;20468;-82
2023/06/29 10:23:06;;;;;;;4.37;3.97;;;;;;;22.81;55.65;94962.53;5077316;28;20937;-82
2023/06/29 10:25:37;;;;;;;3.90;3.60;;;;;;;22.72;56.37;94971.75;5090831;28;20449;-81
2023/06/29 10:28:05;;;;;;;8.10;4.23;;;;;;;22.68;57.01;94962.50;5086016;28;20494;-81
2023/06/29 10:30:44;;;;;;;4.07;3.60;;;;;;;22.73;55.81;94965.38;5094879;28;20445;-81
2023/06/29 10:33:11;;;;;;;6.70;3.77;;;;;;;22.85;53.70;94955.78;5086249;28;20573;-82
2023/06/29 10:35:38;;;;;;;3.97;3.63;;;;;;;22.93;53.37;94953.94;5094567;28;20442;-82
2023/06/29 10:38:10;;;;;;;5.50;4.10;;;;;;;23.07;54.30;94951.03;5059123;28;20458;-83
2023/06/29 10:40:46;;;;;;;6.13;4.27;;;;;;;23.23;53.46;94960.53;5058380;28;20455;-82
2023/06/29 10:43:13;;;;;;;4.13;3.73;;;;;;;23.46;54.40;94949.41;5094201;28;20453;-81
2023/06/29 10:45:40;;;;;;;3.87;3.63;;;;;;;23.68;54.39;94942.78;5076886;28;20447;-81
2023/06/29 10:48:13;;;;;;;4.23;3.93;;;;;;;23.69;54.33;94948.97;5074010;28;20789;-81
2023/06/29 10:50:44;;;;;;;4.50;3.90;;;;;;;23.67;54.49;94948.34;5074154;28;20447;-81
2023/06/29 10:53:12;;;;;;;3.10;2.80;;;;;;;23.70;52.85;94946.06;5073736;28;20549;-81
2023/06/29 10:55:46;;;;;;;4.63;3.80;;;;;;;23.83;52.47;94950.59;5074097;28;20451;-81
2023/06/29 10:58:15;;;;;;;5.67;3.70;;;;;;;23.81;51.55;94938.44;5073748;28;20946;-82
2023/06/29 11:00:42;;;;;;;3.97;3.70;;;;;;;23.86;51.59;94939.44;5073907;28;20455;-81
2023/06/29 11:03:10;;;;;;;6.03;3.87;;;;;;;23.89;53.35;94936.34;5074008;28;20470;-82
2023/06/29 11:05:37;;;;;;;4.13;3.50;;;;;;;23.77;51.68;94940.72;5073866;28;20503;-82
2023/06/29 11:08:06;;;;;;;4.27;3.77;;;;;;;23.48;52.22;94936.63;5072885;28;20443;-79
2023/06/29 11:10:33;;;;;;;4.03;3.73;;;;;;;23.30;52.30;94937.25;5079150;28;20467;-78
2023/06/29 11:13:07;;;;;;;4.53;4.13;;;;;;;23.27;53.58;94939.53;5079321;28;20551;-79
2023/06/29 11:15:34;;;;;;;4.10;3.40;;;;;;;23.30;54.13;94934.56;5072167;28;20929;-79
2023/06/29 11:18:04;;;;;;;3.60;3.30;;;;;;;23.24;54.19;94938.09;5072555;28;20454;-78
2023/06/29 11:20:31;;;;;;;6.33;3.13;;;;;;;23.20;48.90;94939.53;5073617;28;20807;-79
2023/06/29 11:22:59;;;;;;;4.10;3.33;;;;;;;23.27;50.52;94928.81;5036389;28;20514;-79
2023/06/29 11:25:28;;;;;;;4.27;3.60;;;;;;;23.14;51.93;94938.50;5072709;28;20955;-78
2023/06/29 11:27:55;;;;;;;4.90;3.80;;;;;;;23.15;50.41;94939.31;5072664;28;20941;-77
2023/06/29 11:30:23;;;;;;;4.67;4.00;;;;;;;23.25;51.76;94928.19;5072820;28;20448;-78
2023/06/29 11:32:52;;;;;;;4.60;3.70;;;;;;;23.30;50.98;94920.34;5072731;28;20966;-79
2023/06/29 11:35:22;;;;;;;3.50;3.20;;;;;;;23.16;50.48;94922.22;5072520;28;20458;-78
2023/06/29 11:37:50;;;;;;;3.20;2.93;;;;;;;23.17;48.87;94923.88;5072558;28;20480;-78
2023/06/29 11:40:20;;;;;;;3.40;2.93;;;;;;;23.00;49.57;94919.97;5072367;28;20465;-78
2023/06/29 11:42:55;;;;;;;2.90;2.70;;;;;;;23.11;45.00;94911.28;5037374;28;20902;-78
2023/06/29 11:45:25;;;;;;;3.10;2.90;;;;;;;23.17;47.65;94919.34;5072377;28;20528;-78
2023/06/29 11:47:55;;;;;;;3.80;3.50;;;;;;;23.35;49.64;94907.97;5072772;28;20453;-78
2023/06/29 11:50:25;;;;;;;3.40;3.10;;;;;;;23.54;52.07;94905.50;5072247;28;20906;-78
2023/06/29 11:52:53;;;;;;;3.83;3.30;;;;;;;23.60;47.16;94899.31;5072455;28;20823;-79
2023/06/29 11:55:24;;;;;;;4.35;3.53;;;;;;;23.60;47.68;94900.13;5069102;28;20445;-78
2023/06/29 11:57:55;;;;;;;4.93;3.30;;;;;;;23.59;46.99;94901.19;5072856;28;20290;-80
2023/06/29 12:00:33;;;;;;;8.70;3.40;;;;;;;23.43;48.03;94897.06;5077242;28;20466;-78
2023/06/29 12:03:10;;;;;;;3.53;3.20;;;;;;;23.17;48.09;94897.09;5087254;28;20513;-78
2023/06/29 12:05:44;;;;;;;3.93;3.20;;;;;;;23.26;49.75;94895.84;5085708;28;20443;-78
2023/06/29 12:08:15;;;;;;;3.67;3.37;;;;;;;23.21;47.72;94898.34;5090614;28;20442;-79
2023/06/29 12:10:44;;;;;;;4.97;4.10;;;;;;;23.37;49.17;94900.56;5084447;28;20452;-78
2023/06/29 12:13:11;;;;;;;3.90;3.60;;;;;;;23.57;48.33;94889.03;5071965;28;20540;-78
2023/06/29 12:15:45;;;;;;;5.17;3.53;;;;;;;23.73;48.47;94885.91;5079272;28;20443;-78
2023/06/29 12:18:18;;;;;;;3.10;2.73;;;;;;;23.85;46.47;94889.56;5086812;28;20437;-78
2023/06/29 12:20:47;;;;;;;4.43;3.40;;;;;;;23.97;48.56;94884.34;5072436;28;20447;-78
2023/06/29 12:23:15;;;;;;;3.67;3.37;;;;;;;23.96;46.42;94888.06;5077322;28;20451;-77
2023/06/29 12:25:46;;;;;;;8.53;3.10;;;;;;;23.92;45.54;94895.72;5086112;28;20447;-78
2023/06/29 12:28:13;;;;;;;3.83;3.50;;;;;;;23.94;47.12;94887.44;5092678;28;20818;-78
2023/06/29 12:30:41;;;;;;;6.57;3.90;;;;;;;24.04;47.37;94887.84;5096221;28;20455;-78
2023/06/29 12:33:11;;;;;;;3.33;2.97;;;;;;;23.99;45.70;94884.94;5096242;28;20981;-78
2023/06/29 12:35:51;;;;;;;3.27;2.97;;;;;;;23.94;45.69;94880.22;5096157;28;21277;-78
2023/06/29 12:38:25;;;;;;;3.10;2.90;;;;;;;23.90;44.90;94881.69;5046409;28;20926;-77
2023/06/29 12:40:57;;;;;;;3.40;3.10;;;;;;;23.95;45.29;94881.88;5096131;28;20447;-79
2023/06/29 12:43:23;;;;;;;4.13;3.00;;;;;;;24.00;44.25;94871.38;5096224;28;20503;-77
2023/06/29 12:45:51;;;;;;;3.33;3.10;;;;;;;24.02;45.50;94871.16;5096073;28;20442;-78
2023/06/29 12:48:18;;;;;;;3.13;2.83;;;;;;;24.10;45.06;94869.03;5096358;28;20443;-78
2023/06/29 12:50:45;;;;;;;4.63;2.70;;;;;;;24.06;43.56;94873.19;5095936;28;20443;-77
2023/06/29 12:53:15;;;;;;;2.70;2.50;;;;;;;23.95;42.84;94864.97;5076705;28;20980;-78
2023/06/29 12:55:43;;;;;;;3.10;2.90;;;;;;;23.96;43.41;94870.13;5096077;28;20454;-78
2023/06/29 12:58:13;;;;;;;5.70;3.13;;;;;;;23.93;43.93;94862.50;5096000;28;20443;-78